Naples, FL (34101)

8:26 PM EDT on July 23, 2016 (GMT -0400)
Flamingo Estates | | Change Station

Elev 23 ft 26.14 °N, 81.75 °W | Updated 25 seconds ago

Mostly Cloudy
Mostly Cloudy
84.4 °F
Feels Like 94 °F
N
1.7
Wind Variable Wind from West

Today
High -- | Low -- °F
--% Chance of Precip.
Yesterday
High -- | Low -- °F
Precip. -- in
Pressure 30.01 in
Visibility 10.0 miles
Clouds Mostly Cloudy 6000 ft
Heat Index 94 °F
Dew Point 76 °F
Humidity 76%
Rainfall 0.00 in
Snow Depth Not available.
6:48 AM 8:18 PM
Waning Gibbous, 81% visible
METAR KAPF 232353Z 30004KT 10SM BKN060 29/23 A3001 RMK AO2 LTG DSNT E SLP161 T02940233 10317 20289 53003
Pressure 30.01 in
Visibility 10.0 miles
Clouds Mostly Cloudy 6000 ft
Heat Index 94 °F
Dew Point 76 °F
Humidity 76%
Rainfall 0.00 in
Snow Depth Not available.
6:48 AM 8:18 PM
Waning Gibbous, 81% visible
METAR KAPF 232353Z 30004KT 10SM BKN060 29/23 A3001 RMK AO2 LTG DSNT E SLP161 T02940233 10317 20289 53003

10-Day Weather Forecast

Almanac

Astronomy

Jul. 23, 2016 Rise Set
Actual Time
Civil Twilight
Nautical Twilight
Astronomical Twilight
Moon
Length of Visible Light
Length of Day
Tomorrow will be .
, % of the Moon is Illuminated

Today's Extremes

State Highs State Lows

Community

WunderPhotos

Upload Photos

1,926,979 photos uploaded!

WunderBlog® & News

Nearby

Air Quality

  Air Quality AQ Index Pollutant
Not available.

Snow Depth

Station Depth Elevation

Earthquake Activity

City Distance Mag. Time & Date
Minimum magnitude displayed is 2.5.

Coastal Water Temperatures

Place Temperature

Stations

Nearby Weather Stations

Station Location Temp. Windchill Dew Point Humidity Wind Precip. Elev Updated Type
                   

Watches & Warnings

There are currently no watches in effect.